createdAt,value
2022-12-18T00:01:36.882Z,-6.92
2022-12-18T00:04:07.034Z,-6.97
2022-12-18T00:06:34.743Z,-7.01
2022-12-18T00:09:02.039Z,-7.06
2022-12-18T00:11:31.093Z,-7.17
2022-12-18T00:13:59.218Z,-7.15
2022-12-18T00:16:27.545Z,-7.22
2022-12-18T00:18:57.422Z,-7.23
2022-12-18T00:21:24.342Z,-7.28
2022-12-18T00:23:51.349Z,-7.37
2022-12-18T00:26:29.592Z,-7.27
2022-12-18T00:29:00.385Z,-7.34
2022-12-18T00:31:27.327Z,-7.33
2022-12-18T00:33:57.445Z,-7.40
2022-12-18T00:36:29.695Z,-7.42
2022-12-18T00:38:57.741Z,-7.42
2022-12-18T00:41:25.402Z,-7.41
2022-12-18T00:43:51.854Z,-7.46
2022-12-18T00:46:18.224Z,-7.50
2022-12-18T00:48:44.758Z,-7.55
2022-12-18T00:51:11.592Z,-7.67
2022-12-18T00:53:38.245Z,-7.62
2022-12-18T00:56:05.232Z,-7.64
2022-12-18T00:58:31.937Z,-7.70
2022-12-18T01:00:58.347Z,-7.69
2022-12-18T01:03:25.086Z,-7.63
2022-12-18T01:05:51.412Z,-7.61
2022-12-18T01:08:17.872Z,-7.64
2022-12-18T01:10:44.319Z,-7.58
2022-12-18T01:13:11.488Z,-7.56
2022-12-18T01:15:37.803Z,-7.56
2022-12-18T01:18:05.890Z,-7.55
2022-12-18T01:20:32.230Z,-7.53
2022-12-18T01:22:58.896Z,-7.65
2022-12-18T01:25:25.383Z,-7.58
2022-12-18T01:27:51.715Z,-7.59
2022-12-18T01:30:18.171Z,-7.53
2022-12-18T01:32:44.516Z,-7.49
2022-12-18T01:35:11.200Z,-7.48
2022-12-18T01:37:38.707Z,-7.50
2022-12-18T01:40:05.599Z,-7.55
2022-12-18T01:42:32.016Z,-7.52
2022-12-18T01:45:12.666Z,-7.49
2022-12-18T01:47:49.357Z,-7.54
2022-12-18T01:50:24.001Z,-7.59
2022-12-18T01:53:00.077Z,-7.67
2022-12-18T01:55:30.955Z,-7.68
2022-12-18T01:57:59.754Z,-7.69
2022-12-18T02:00:27.405Z,-7.73
2022-12-18T02:02:56.074Z,-7.69
2022-12-18T02:05:29.981Z,-7.75
2022-12-18T02:08:09.516Z,-7.76
2022-12-18T02:11:13.706Z,-7.80
2022-12-18T02:14:11.195Z,-7.90
2022-12-18T02:16:47.318Z,-7.99
2022-12-18T02:19:33.173Z,-8.00
2022-12-18T02:22:30.549Z,-7.98
2022-12-18T02:25:22.920Z,-7.98
2022-12-18T02:27:51.748Z,-8.00
2022-12-18T02:30:19.821Z,-8.01
2022-12-18T02:32:50.837Z,-8.06
2022-12-18T02:35:30.128Z,-8.11
2022-12-18T02:37:58.385Z,-8.06
2022-12-18T02:40:27.627Z,-8.08
2022-12-18T02:42:54.049Z,-8.08
2022-12-18T02:45:20.452Z,-8.18
2022-12-18T02:47:49.654Z,-8.35
2022-12-18T02:50:45.625Z,-8.33
2022-12-18T02:53:31.530Z,-8.37
2022-12-18T02:56:14.703Z,-8.32
2022-12-18T02:59:00.977Z,-8.35
2022-12-18T03:01:46.446Z,-8.41
2022-12-18T03:04:20.190Z,-8.46
2022-12-18T03:06:50.735Z,-8.49
2022-12-18T03:09:23.661Z,-8.48
2022-12-18T03:11:57.257Z,-8.52
2022-12-18T03:14:25.118Z,-8.52
2022-12-18T03:16:54.973Z,-8.56
2022-12-18T03:19:27.112Z,-8.62
2022-12-18T03:21:57.004Z,-8.58
2022-12-18T03:24:25.470Z,-8.53
2022-12-18T03:26:55.661Z,-8.51
2022-12-18T03:29:37.047Z,-8.52
2022-12-18T03:32:10.605Z,-8.54
2022-12-18T03:34:41.440Z,-8.57
2022-12-18T03:37:08.045Z,-8.62
2022-12-18T03:39:37.529Z,-8.63
2022-12-18T03:42:16.432Z,-8.67
2022-12-18T03:45:14.912Z,-8.72
2022-12-18T03:47:58.456Z,-8.89
2022-12-18T03:50:36.792Z,-8.96
2022-12-18T03:53:16.939Z,-9.01
2022-12-18T03:55:44.814Z,-9.08
2022-12-18T03:58:14.746Z,-9.11
2022-12-18T04:00:42.399Z,-9.14
2022-12-18T04:03:11.023Z,-9.14
2022-12-18T04:05:38.347Z,-9.18
2022-12-18T04:08:06.127Z,-9.16
2022-12-18T04:10:32.560Z,-9.17
2022-12-18T04:12:59.413Z,-9.15
2022-12-18T04:15:26.086Z,-9.22
2022-12-18T04:17:52.522Z,-9.28
2022-12-18T04:20:19.335Z,-9.29
2022-12-18T04:22:45.790Z,-9.26
2022-12-18T04:25:13.110Z,-9.27
2022-12-18T04:27:39.471Z,-9.32
2022-12-18T04:30:06.672Z,-9.37
2022-12-18T04:32:34.685Z,-9.39
2022-12-18T04:35:01.256Z,-9.36
2022-12-18T04:37:27.961Z,-9.37
2022-12-18T04:39:54.745Z,-9.40
2022-12-18T04:42:21.207Z,-9.41
2022-12-18T04:44:47.772Z,-9.45
2022-12-18T04:47:14.111Z,-9.48
2022-12-18T04:49:40.524Z,-9.47
2022-12-18T04:52:07.101Z,-9.59
2022-12-18T04:54:33.472Z,-9.61
2022-12-18T04:56:59.882Z,-9.55
2022-12-18T04:59:26.212Z,-9.54
2022-12-18T05:01:52.691Z,-9.53
2022-12-18T05:04:19.138Z,-9.50
2022-12-18T05:06:46.320Z,-9.53
2022-12-18T05:09:12.978Z,-9.48
2022-12-18T05:11:39.324Z,-9.44
2022-12-18T05:14:05.882Z,-9.47
2022-12-18T05:16:32.375Z,-9.50
2022-12-18T05:18:59.133Z,-9.58
2022-12-18T05:21:25.583Z,-9.59
2022-12-18T05:23:52.244Z,-9.63
2022-12-18T05:26:19.453Z,-9.65
2022-12-18T05:28:46.210Z,-9.64
2022-12-18T05:31:13.288Z,-9.72
2022-12-18T05:33:40.094Z,-9.83
2022-12-18T05:36:08.839Z,-9.92
2022-12-18T05:38:38.332Z,-9.87
2022-12-18T05:41:05.987Z,-9.89
2022-12-18T05:43:32.721Z,-9.90
2022-12-18T05:45:59.077Z,-9.96
2022-12-18T05:48:25.711Z,-9.95
2022-12-18T05:50:52.324Z,-9.96
2022-12-18T05:53:20.735Z,-9.95
2022-12-18T05:55:47.884Z,-9.98
2022-12-18T05:58:15.181Z,-9.96
2022-12-18T06:00:43.759Z,-10.07
2022-12-18T06:03:11.909Z,-10.12
2022-12-18T06:05:40.871Z,-10.08
2022-12-18T06:08:07.222Z,-10.13
2022-12-18T06:10:34.418Z,-10.19
2022-12-18T06:13:01.520Z,-10.27
2022-12-18T06:15:28.105Z,-10.21
2022-12-18T06:17:54.427Z,-10.34
2022-12-18T06:20:21.800Z,-10.31
2022-12-18T06:22:48.340Z,-10.30
2022-12-18T06:25:15.000Z,-10.31
2022-12-18T06:27:41.620Z,-10.32
2022-12-18T06:30:10.034Z,-10.36
2022-12-18T06:32:36.755Z,-10.33
2022-12-18T06:35:03.249Z,-10.32
2022-12-18T06:37:32.529Z,-10.32
2022-12-18T06:39:58.904Z,-10.25
2022-12-18T06:42:25.961Z,-10.25
2022-12-18T06:44:52.665Z,-10.33
2022-12-18T06:47:19.792Z,-10.35
2022-12-18T06:49:46.093Z,-10.29
2022-12-18T06:52:12.435Z,-10.29
2022-12-18T06:54:38.951Z,-10.29
2022-12-18T06:57:05.298Z,-10.29
2022-12-18T06:59:32.140Z,-10.40
2022-12-18T07:01:58.586Z,-10.39
2022-12-18T07:04:32.679Z,-10.32
2022-12-18T07:06:59.120Z,-10.36
2022-12-18T07:09:25.549Z,-10.35
2022-12-18T07:11:52.870Z,-10.34
2022-12-18T07:14:19.291Z,-10.33
2022-12-18T07:16:46.093Z,-10.35
2022-12-18T07:19:12.526Z,-10.41
2022-12-18T07:21:39.468Z,-10.43
2022-12-18T07:24:06.613Z,-10.48
2022-12-18T07:26:33.252Z,-10.47
2022-12-18T07:28:59.657Z,-10.46
2022-12-18T07:31:27.347Z,-10.46
2022-12-18T07:33:54.284Z,-10.50
2022-12-18T07:36:21.192Z,-10.47
2022-12-18T07:38:49.373Z,-10.43
2022-12-18T07:41:16.067Z,-10.48
2022-12-18T07:43:43.370Z,-10.44
2022-12-18T07:46:11.069Z,-10.41
2022-12-18T07:48:39.596Z,-10.36
2022-12-18T07:51:07.744Z,-10.32
2022-12-18T07:53:36.011Z,-10.31
2022-12-18T07:56:26.514Z,-10.21
2022-12-18T07:58:52.291Z,-10.24
2022-12-18T08:01:18.926Z,-10.21
2022-12-18T08:03:45.855Z,-10.17
2022-12-18T08:06:12.402Z,-10.14
2022-12-18T08:08:38.839Z,-10.07
2022-12-18T08:11:05.762Z,-10.04
2022-12-18T08:13:32.445Z,-9.97
2022-12-18T08:16:00.496Z,-9.87
2022-12-18T08:18:26.924Z,-9.81
2022-12-18T08:20:53.326Z,-9.71
2022-12-18T08:23:20.324Z,-9.62
2022-12-18T08:25:46.904Z,-9.55
2022-12-18T08:28:13.392Z,-9.52
2022-12-18T08:30:39.779Z,-9.35
2022-12-18T08:33:07.138Z,-9.28
2022-12-18T08:35:42.508Z,-9.17
2022-12-18T08:38:11.875Z,-8.84
2022-12-18T08:40:38.511Z,-8.25
2022-12-18T08:43:04.864Z,-7.73
2022-12-18T08:45:31.211Z,-7.45
2022-12-18T08:47:57.633Z,-7.25
2022-12-18T08:50:24.023Z,-7.23
2022-12-18T08:52:50.590Z,-7.29
2022-12-18T08:55:17.158Z,-7.30
2022-12-18T08:57:43.815Z,-7.09
2022-12-18T09:00:11.708Z,-6.73
2022-12-18T09:02:38.726Z,-5.83
2022-12-18T09:05:05.647Z,-5.64
2022-12-18T09:07:32.195Z,-5.90
2022-12-18T09:09:58.638Z,-6.10
2022-12-18T09:12:25.056Z,-5.27
2022-12-18T09:14:51.488Z,-4.96
2022-12-18T09:17:17.961Z,-4.70
2022-12-18T09:19:44.584Z,-4.41
2022-12-18T09:22:10.978Z,-4.26
2022-12-18T09:24:37.377Z,-4.18
2022-12-18T09:27:03.726Z,-4.18
2022-12-18T09:29:30.318Z,-4.27
2022-12-18T09:31:56.805Z,-4.50
2022-12-18T09:34:23.131Z,-4.66
2022-12-18T09:36:49.576Z,-4.80
2022-12-18T09:39:17.364Z,-4.75
2022-12-18T09:41:56.857Z,-4.73
2022-12-18T09:44:29.542Z,-4.60
2022-12-18T09:47:17.574Z,-4.61
2022-12-18T09:49:46.163Z,-4.54
2022-12-18T09:52:18.587Z,-4.42
2022-12-18T09:54:52.557Z,-4.52
2022-12-18T09:57:23.116Z,-4.40
2022-12-18T09:59:58.207Z,-4.32
2022-12-18T10:02:26.024Z,-4.14
2022-12-18T10:05:25.915Z,-4.12
2022-12-18T10:08:26.432Z,-3.92
2022-12-18T10:11:12.997Z,-3.64
2022-12-18T10:14:09.018Z,-3.42
2022-12-18T10:16:43.881Z,-3.19
2022-12-18T10:19:52.492Z,-3.10
2022-12-18T10:22:32.005Z,-2.99
2022-12-18T10:25:16.976Z,-2.91
2022-12-18T10:27:43.317Z,-2.66
2022-12-18T10:30:18.259Z,-2.18
2022-12-18T10:32:44.989Z,-1.47
2022-12-18T10:35:24.803Z,-1.14
2022-12-18T10:38:11.649Z,-0.73
2022-12-18T10:41:00.461Z,-1.23
2022-12-18T10:43:37.715Z,-1.41
2022-12-18T10:46:10.134Z,-1.51
2022-12-18T10:48:48.528Z,-1.29
2022-12-18T10:51:27.361Z,-0.99
2022-12-18T10:54:06.437Z,-0.52
2022-12-18T10:56:36.867Z,0.20
2022-12-18T10:59:06.271Z,0.63
2022-12-18T11:01:53.983Z,1.26
2022-12-18T11:04:24.120Z,2.16
2022-12-18T11:07:06.397Z,2.45
2022-12-18T11:09:38.089Z,3.07
2022-12-18T11:12:23.755Z,3.47
2022-12-18T11:14:52.724Z,3.92
2022-12-18T11:17:34.048Z,4.50
2022-12-18T11:20:03.010Z,4.61
2022-12-18T11:22:35.966Z,5.11
2022-12-18T11:25:32.590Z,4.70
2022-12-18T11:28:00.045Z,4.35
2022-12-18T11:30:30.650Z,4.44
2022-12-18T11:33:03.953Z,4.30
2022-12-18T11:36:00.684Z,4.37
2022-12-18T11:38:35.537Z,4.00
2022-12-18T11:41:17.399Z,3.10
2022-12-18T11:43:53.934Z,2.62
2022-12-18T11:46:31.339Z,2.45
2022-12-18T11:49:28.118Z,2.17
2022-12-18T11:52:23.833Z,2.11
2022-12-18T11:54:56.540Z,1.68
2022-12-18T11:57:56.391Z,1.46
2022-12-18T12:00:24.337Z,1.27
2022-12-18T12:03:03.119Z,1.16
2022-12-18T12:05:54.306Z,0.96
2022-12-18T12:08:21.556Z,0.56
2022-12-18T12:10:56.986Z,-0.04
2022-12-18T12:13:27.330Z,-0.20
2022-12-18T12:16:24.830Z,-0.14
2022-12-18T12:18:57.241Z,-0.20
2022-12-18T12:21:41.389Z,-0.39
2022-12-18T12:24:32.349Z,-0.51
2022-12-18T12:27:21.493Z,-0.56
2022-12-18T12:30:00.089Z,-0.47
2022-12-18T12:32:29.449Z,-0.45
2022-12-18T12:35:09.400Z,-0.46
2022-12-18T12:37:53.089Z,-0.46
2022-12-18T12:40:50.844Z,-0.41
2022-12-18T12:43:35.596Z,-0.45
2022-12-18T12:46:14.375Z,-0.37
2022-12-18T12:49:03.416Z,-0.27
2022-12-18T12:51:34.653Z,-0.27
2022-12-18T12:54:04.121Z,-0.18
2022-12-18T12:56:58.109Z,-0.08
2022-12-18T12:59:38.750Z,-0.10
2022-12-18T13:02:29.896Z,-0.25
2022-12-18T13:05:15.662Z,-0.44
2022-12-18T13:07:52.668Z,-0.58
2022-12-18T13:10:19.251Z,-0.76
2022-12-18T13:16:09.202Z,-1.03
2022-12-18T13:18:36.649Z,-1.10
2022-12-18T13:21:16.388Z,-1.21
2022-12-18T13:23:44.007Z,-1.30
2022-12-18T13:26:24.790Z,-1.42
2022-12-18T13:28:55.564Z,-1.53
2022-12-18T13:31:31.111Z,-1.62
2022-12-18T13:34:29.300Z,-1.68
2022-12-18T13:37:17.926Z,-1.72
2022-12-18T13:39:44.438Z,-1.76
2022-12-18T13:42:10.934Z,-1.83
2022-12-18T13:44:41.394Z,-1.84
2022-12-18T13:47:32.327Z,-1.88
2022-12-18T13:49:59.510Z,-1.90
2022-12-18T13:52:28.985Z,-1.97
2022-12-18T13:54:58.707Z,-2.03
2022-12-18T13:57:37.826Z,-2.00
2022-12-18T14:00:33.364Z,-2.08
2022-12-18T14:03:01.086Z,-2.18
2022-12-18T14:05:33.819Z,-2.22
2022-12-18T14:08:05.725Z,-2.24
2022-12-18T14:10:47.961Z,-2.29
2022-12-18T14:13:42.264Z,-2.33
2022-12-18T14:16:15.207Z,-2.36
2022-12-18T14:18:56.884Z,-2.36
2022-12-18T14:21:31.183Z,-2.37
2022-12-18T14:24:22.574Z,-2.42
2022-12-18T14:26:51.087Z,-2.43
2022-12-18T14:29:28.859Z,-2.47
2022-12-18T14:32:16.584Z,-2.50
2022-12-18T14:34:49.640Z,-2.51
2022-12-18T14:37:21.004Z,-2.60
2022-12-18T14:40:14.091Z,-2.63
2022-12-18T14:42:41.094Z,-2.70
2022-12-18T14:45:42.626Z,-2.67
2022-12-18T14:48:12.738Z,-2.69
2022-12-18T14:50:40.890Z,-2.72
2022-12-18T14:53:21.837Z,-2.73
2022-12-18T14:55:49.724Z,-2.77
2022-12-18T14:58:18.543Z,-2.80
2022-12-18T15:00:45.119Z,-2.82
2022-12-18T15:03:15.977Z,-2.84
2022-12-18T15:05:42.586Z,-2.90
2022-12-18T15:08:29.639Z,-2.91
2022-12-18T15:10:56.054Z,-2.95
2022-12-18T15:13:24.438Z,-2.97
2022-12-18T15:15:52.251Z,-2.99
2022-12-18T15:18:21.636Z,-3.02
2022-12-18T15:20:55.376Z,-3.03
2022-12-18T15:23:34.173Z,-3.05
2022-12-18T15:26:02.393Z,-3.07
2022-12-18T15:28:37.480Z,-3.07
2022-12-18T15:31:07.137Z,-3.09
2022-12-18T15:33:37.381Z,-3.11
2022-12-18T15:36:09.100Z,-3.15
2022-12-18T15:38:35.883Z,-3.20
2022-12-18T15:41:02.908Z,-3.19
2022-12-18T15:43:30.033Z,-3.21
2022-12-18T15:45:56.558Z,-3.24
2022-12-18T15:48:23.833Z,-3.24
2022-12-18T15:50:56.162Z,-3.25
2022-12-18T15:53:22.548Z,-3.30
2022-12-18T15:55:48.981Z,-3.32
2022-12-18T15:58:15.620Z,-3.31
2022-12-18T16:00:43.398Z,-3.34
2022-12-18T16:03:11.531Z,-3.35
2022-12-18T16:05:37.987Z,-3.32
2022-12-18T16:08:05.137Z,-3.33
2022-12-18T16:10:31.744Z,-3.40
2022-12-18T16:12:58.296Z,-3.40
2022-12-18T16:15:25.172Z,-3.32
2022-12-18T16:17:51.928Z,-3.42
2022-12-18T16:20:22.895Z,-3.38
2022-12-18T16:22:50.135Z,-3.38
2022-12-18T16:25:28.455Z,-3.41
2022-12-18T16:27:56.204Z,-3.39
2022-12-18T16:30:27.975Z,-3.40
2022-12-18T16:32:55.982Z,-3.47
2022-12-18T16:35:22.730Z,-3.42
2022-12-18T16:37:49.160Z,-3.44
2022-12-18T16:40:17.347Z,-3.41
2022-12-18T16:42:46.022Z,-3.44
2022-12-18T16:45:18.866Z,-3.45
2022-12-18T16:47:45.715Z,-3.45
2022-12-18T16:50:12.812Z,-3.44
2022-12-18T16:52:40.617Z,-3.42
2022-12-18T16:55:08.017Z,-3.40
2022-12-18T16:57:34.392Z,-3.44
2022-12-18T17:00:05.287Z,-3.49
2022-12-18T17:02:33.143Z,-3.44
2022-12-18T17:04:59.757Z,-3.44
2022-12-18T17:07:27.052Z,-3.27
2022-12-18T17:09:54.253Z,-3.47
2022-12-18T17:12:21.995Z,-3.44
2022-12-18T17:14:48.630Z,-3.46
2022-12-18T17:17:23.774Z,-3.40
2022-12-18T17:20:02.228Z,-3.45
2022-12-18T17:22:28.831Z,-3.49
2022-12-18T17:24:55.144Z,-3.54
2022-12-18T17:27:21.538Z,-3.54
2022-12-18T17:29:48.934Z,-3.45
2022-12-18T17:32:16.458Z,-3.43
2022-12-18T17:34:42.945Z,-3.47
2022-12-18T17:37:09.481Z,-3.48
2022-12-18T17:39:36.248Z,-3.54
2022-12-18T17:42:02.777Z,-3.58
2022-12-18T17:44:29.307Z,-3.54
2022-12-18T17:46:55.797Z,-3.49
2022-12-18T17:49:22.272Z,-3.48
2022-12-18T17:51:48.973Z,-3.48
2022-12-18T17:54:15.491Z,-3.49
2022-12-18T17:56:41.984Z,-3.48
2022-12-18T17:59:09.166Z,-3.49
2022-12-18T18:01:40.955Z,-3.50
2022-12-18T18:04:10.550Z,-3.20
2022-12-18T18:06:39.104Z,-3.19
2022-12-18T18:09:06.725Z,-3.33
2022-12-18T18:11:39.100Z,-3.37
2022-12-18T18:14:10.911Z,-3.40
2022-12-18T18:16:43.520Z,-3.43
2022-12-18T18:19:13.046Z,-3.43
2022-12-18T18:21:41.861Z,-3.45
2022-12-18T18:24:09.918Z,-3.41
2022-12-18T18:26:37.723Z,-3.35
2022-12-18T18:29:07.279Z,-3.37
2022-12-18T18:31:34.616Z,-3.34
2022-12-18T18:34:07.198Z,-3.47
2022-12-18T18:36:34.542Z,-3.45
2022-12-18T18:39:01.532Z,-3.42
2022-12-18T18:41:27.880Z,-3.47
2022-12-18T18:43:55.803Z,-3.41
2022-12-18T18:46:22.993Z,-3.40
2022-12-18T18:48:49.552Z,-3.38
2022-12-18T18:51:21.475Z,-3.41
2022-12-18T18:53:50.668Z,-3.39
2022-12-18T18:56:56.379Z,-3.09
2022-12-18T18:59:05.770Z,-3.19
2022-12-18T19:01:32.320Z,-3.12
2022-12-18T19:03:59.174Z,-3.22
2022-12-18T19:06:27.742Z,-3.28
2022-12-18T19:08:55.977Z,-3.09
2022-12-18T19:11:23.755Z,-3.09
2022-12-18T19:13:50.123Z,-3.13
2022-12-18T19:16:16.586Z,-3.34
2022-12-18T19:18:43.488Z,-3.32
2022-12-18T19:21:11.152Z,-3.24
2022-12-18T19:23:37.619Z,-3.21
2022-12-18T19:26:26.977Z,-3.20
2022-12-18T19:28:52.970Z,-3.09
2022-12-18T19:31:24.449Z,-3.14
2022-12-18T19:33:52.607Z,-3.16
2022-12-18T19:36:30.870Z,-3.12
2022-12-18T19:38:59.634Z,-3.12
2022-12-18T19:41:29.133Z,-3.12
2022-12-18T19:44:07.845Z,-3.01
2022-12-18T19:46:35.731Z,-2.82
2022-12-18T19:49:02.823Z,-2.09
2022-12-18T19:51:31.073Z,-1.16
2022-12-18T19:54:01.229Z,-0.95
2022-12-18T19:56:31.003Z,-0.66
2022-12-18T19:58:57.524Z,-0.87
2022-12-18T20:01:25.997Z,-0.77
2022-12-18T20:03:54.484Z,-0.59
2022-12-18T20:06:29.723Z,-0.22
2022-12-18T20:09:00.539Z,-0.23
2022-12-18T20:11:29.193Z,0.09
2022-12-18T20:13:55.761Z,0.03
2022-12-18T20:16:23.242Z,-0.38
2022-12-18T20:18:49.669Z,-0.17
2022-12-18T20:21:16.188Z,-0.42
2022-12-18T20:23:43.305Z,0.31
2022-12-18T20:26:10.753Z,-0.09
2022-12-18T20:28:37.829Z,-0.41
2022-12-18T20:31:07.688Z,-0.10
2022-12-18T20:33:36.048Z,-0.43
2022-12-18T20:36:05.939Z,-0.02
2022-12-18T20:38:34.287Z,-0.01
2022-12-18T20:41:02.112Z,-0.27
2022-12-18T20:43:29.462Z,-0.06
2022-12-18T20:46:07.996Z,-0.03
2022-12-18T20:48:34.528Z,-0.19
2022-12-18T20:51:04.023Z,0.01
2022-12-18T20:53:32.029Z,-0.11
2022-12-18T20:55:58.682Z,-0.12
2022-12-18T20:58:25.411Z,-0.21
2022-12-18T21:01:03.985Z,0.24
2022-12-18T21:03:30.513Z,0.53
2022-12-18T21:05:56.926Z,0.21
2022-12-18T21:08:23.415Z,0.22
2022-12-18T21:10:49.754Z,0.31
2022-12-18T21:13:16.446Z,0.15
2022-12-18T21:15:43.550Z,0.08
2022-12-18T21:18:09.973Z,-0.02
2022-12-18T21:20:36.885Z,0.18
2022-12-18T21:23:10.425Z,0.64
2022-12-18T21:25:43.505Z,0.55
2022-12-18T21:28:09.896Z,0.51
2022-12-18T21:30:36.439Z,0.59
2022-12-18T21:33:02.977Z,0.53
2022-12-18T21:35:29.546Z,0.32
2022-12-18T21:37:58.558Z,0.34
2022-12-18T21:40:25.193Z,0.19
2022-12-18T21:42:51.621Z,0.46
2022-12-18T21:45:18.318Z,0.48
2022-12-18T21:47:44.838Z,0.44
2022-12-18T21:50:11.203Z,0.31
2022-12-18T21:52:37.677Z,0.13
2022-12-18T21:55:09.581Z,0.12
2022-12-18T21:57:38.204Z,0.13
2022-12-18T22:00:06.000Z,0.19
2022-12-18T22:02:32.920Z,0.52
2022-12-18T22:04:59.407Z,0.60
2022-12-18T22:07:25.821Z,0.53
2022-12-18T22:09:52.329Z,0.32
2022-12-18T22:12:18.662Z,0.13
2022-12-18T22:14:45.053Z,0.06
2022-12-18T22:17:11.453Z,-0.06
2022-12-18T22:19:42.857Z,-0.08
2022-12-18T22:22:10.197Z,0.42
2022-12-18T22:24:36.725Z,0.89
2022-12-18T22:27:03.157Z,0.51
2022-12-18T22:29:29.637Z,1.11
2022-12-18T22:31:58.179Z,0.94
2022-12-18T22:34:24.902Z,0.76
2022-12-18T22:36:51.721Z,0.77
2022-12-18T22:39:21.501Z,0.74
2022-12-18T22:41:48.516Z,0.65
2022-12-18T22:44:15.220Z,0.83
2022-12-18T22:46:50.797Z,0.61
2022-12-18T22:49:25.773Z,0.77
2022-12-18T22:51:53.189Z,0.94
2022-12-18T22:54:21.012Z,1.03
2022-12-18T22:56:47.549Z,1.20
2022-12-18T22:59:19.673Z,1.20
2022-12-18T23:01:47.375Z,1.20
2022-12-18T23:04:15.977Z,1.29
2022-12-18T23:06:43.276Z,1.09
2022-12-18T23:09:18.423Z,0.91
2022-12-18T23:11:45.773Z,1.01
2022-12-18T23:14:13.254Z,0.78
2022-12-18T23:16:40.170Z,0.55
2022-12-18T23:19:08.060Z,0.68
2022-12-18T23:21:35.266Z,0.56
2022-12-18T23:24:01.980Z,0.56
2022-12-18T23:26:28.616Z,0.51
2022-12-18T23:28:55.250Z,0.48
2022-12-18T23:31:31.046Z,0.50
2022-12-18T23:33:58.807Z,0.37
2022-12-18T23:36:25.999Z,0.41
2022-12-18T23:38:55.313Z,0.40
2022-12-18T23:41:24.360Z,0.80
2022-12-18T23:43:51.233Z,0.83
2022-12-18T23:46:23.935Z,0.97
2022-12-18T23:48:51.309Z,0.71
2022-12-18T23:51:20.206Z,0.75
2022-12-18T23:53:46.590Z,1.09
2022-12-18T23:56:13.399Z,1.15
2022-12-18T23:58:40.240Z,1.01
